Mizuho — JD2038 — position and weather

sailwx.info

Track history (hours):
 
Tides and Currents Weather Stations Pressure Air Temp Water Temp Dewpoint Dewpoint Depression Visibility Wind Speed Wind Dir Waves Ship Positions

Mizuho

Last reported at 2018-Jun-18 05:40 UTC. Time now 2018-Jun-20 05:18 UTC.
Position N 35°29' E 139°58'.

Length 32 m; draft 3.9 m.

Type: Tug. MMSI: 431000205.

Date/timePositionNaut miles runAvg speedWind from/ knotsBaromVisibWave heightAir tempDewpointWater temp
2018-Jun-18 05:40N 35°29' E 139°58'0 0.6
2018-Jun-18 04:52N 35°28' E 139°58'3 0.6
2018-Jun-18 00:09N 35°31' E 139°56'1 2.3
2018-Jun-17 23:45N 35°30' E 139°55'2 4.5
2018-Jun-17 23:18N 35°29' E 139°53'1 4.0
2018-Jun-17 22:59N 35°29' E 139°54'5 0.1
2018-Jun-16 08:24N 35°29' E 140°01'4 0.1
2018-Jun-15 07:05N 35°31' E 139°56'0 0.1
2018-Jun-15 07:00N 35°31' E 139°56'3 1.8
2018-Jun-15 05:19N 35°29' E 139°53'  
2018-Jun-12 04:20N 35°28' E 139°57'3 0.1
2018-Jun-10 00:41N 35°30' E 140°01'0 0.0
2018-Jun-09 07:00N 35°30' E 140°01'3 5.8
2018-Jun-09 06:26N 35°32' E 139°58'1 0.2
2018-Jun-08 22:10N 35°31' E 139°57'  
Track history (hours):
 
Tides and Currents Weather Stations Pressure Air Temp Water Temp Dewpoint Dewpoint Depression Visibility Wind Speed Wind Dir Waves Ship Positions

Mizuho

Last reported at 2018-Jun-18 05:40 UTC. Time now 2018-Jun-20 05:18 UTC.
Position N 35°29' E 139°58'.

Length 32 m; draft 3.9 m.

Type: Tug. MMSI: 431000205.

Date/timePositionNaut miles runAvg speedWind from/ knotsBaromVisibWave heightAir tempDewpointWater temp
2018-Jun-18 05:40N 35°29' E 139°58'0 0.6
2018-Jun-18 04:52N 35°28' E 139°58'3 0.6
2018-Jun-18 00:09N 35°31' E 139°56'1 2.3
2018-Jun-17 23:45N 35°30' E 139°55'2 4.5
2018-Jun-17 23:18N 35°29' E 139°53'1 4.0
2018-Jun-17 22:59N 35°29' E 139°54'5 0.1
2018-Jun-16 08:24N 35°29' E 140°01'4 0.1
2018-Jun-15 07:05N 35°31' E 139°56'0 0.1
2018-Jun-15 07:00N 35°31' E 139°56'3 1.8
2018-Jun-15 05:19N 35°29' E 139°53'  
2018-Jun-12 04:20N 35°28' E 139°57'3 0.1
2018-Jun-10 00:41N 35°30' E 140°01'0 0.0
2018-Jun-09 07:00N 35°30' E 140°01'3 5.8
2018-Jun-09 06:26N 35°32' E 139°58'1 0.2
2018-Jun-08 22:10N 35°31' E 139°57'  

Dump ship's entire track history